sensor_id;sensor_type;location;lat;lon;timestamp;temperature;humidity
7684;DHT22;3884;48.616;12.872;2023-07-30T00:02:15;18.60;99.90
7684;DHT22;3884;48.616;12.872;2023-07-30T00:04:42;18.50;99.90
7684;DHT22;3884;48.616;12.872;2023-07-30T00:07:09;18.50;99.90
7684;DHT22;3884;48.616;12.872;2023-07-30T00:09:38;18.50;99.90
7684;DHT22;3884;48.616;12.872;2023-07-30T00:12:06;18.40;99.90
7684;DHT22;3884;48.616;12.872;2023-07-30T00:14:33;18.40;99.90
7684;DHT22;3884;48.616;12.872;2023-07-30T00:17:00;18.40;99.90
7684;DHT22;3884;48.616;12.872;2023-07-30T00:19:27;18.40;99.90
7684;DHT22;3884;48.616;12.872;2023-07-30T00:21:54;18.50;99.90
7684;DHT22;3884;48.616;12.872;2023-07-30T00:24:21;18.40;99.90
7684;DHT22;3884;48.616;12.872;2023-07-30T00:26:49;18.50;99.90
7684;DHT22;3884;48.616;12.872;2023-07-30T00:29:16;18.50;99.90
7684;DHT22;3884;48.616;12.872;2023-07-30T00:31:44;18.40;99.90
7684;DHT22;3884;48.616;12.872;2023-07-30T00:34:11;18.50;99.90
7684;DHT22;3884;48.616;12.872;2023-07-30T00:36:38;18.50;99.90
7684;DHT22;3884;48.616;12.872;2023-07-30T00:39:05;18.50;99.90
7684;DHT22;3884;48.616;12.872;2023-07-30T00:41:32;18.50;99.90
7684;DHT22;3884;48.616;12.872;2023-07-30T00:44:00;18.50;99.90
7684;DHT22;3884;48.616;12.872;2023-07-30T00:46:27;18.50;99.90
7684;DHT22;3884;48.616;12.872;2023-07-30T00:48:54;18.50;99.90
7684;DHT22;3884;48.616;12.872;2023-07-30T00:51:21;18.50;99.90
7684;DHT22;3884;48.616;12.872;2023-07-30T00:53:49;18.50;99.90
7684;DHT22;3884;48.616;12.872;2023-07-30T00:56:16;18.30;99.90
7684;DHT22;3884;48.616;12.872;2023-07-30T00:58:44;18.40;99.90
7684;DHT22;3884;48.616;12.872;2023-07-30T01:01:12;18.40;99.90
7684;DHT22;3884;48.616;12.872;2023-07-30T01:03:39;18.50;99.90
7684;DHT22;3884;48.616;12.872;2023-07-30T01:06:07;18.40;99.90
7684;DHT22;3884;48.616;12.872;2023-07-30T01:08:34;18.40;99.90
7684;DHT22;3884;48.616;12.872;2023-07-30T01:11:02;18.30;99.90
7684;DHT22;3884;48.616;12.872;2023-07-30T01:13:29;18.40;99.90
7684;DHT22;3884;48.616;12.872;2023-07-30T01:15:57;18.50;99.90
7684;DHT22;3884;48.616;12.872;2023-07-30T01:18:25;18.50;99.90
7684;DHT22;3884;48.616;12.872;2023-07-30T01:20:57;18.50;99.90
7684;DHT22;3884;48.616;12.872;2023-07-30T01:23:25;18.50;99.90
7684;DHT22;3884;48.616;12.872;2023-07-30T01:25:58;18.50;99.90
7684;DHT22;3884;48.616;12.872;2023-07-30T01:28:27;18.50;99.90
7684;DHT22;3884;48.616;12.872;2023-07-30T01:30:56;18.40;99.90
7684;DHT22;3884;48.616;12.872;2023-07-30T01:33:25;18.50;99.90
7684;DHT22;3884;48.616;12.872;2023-07-30T01:35:54;18.50;99.90
7684;DHT22;3884;48.616;12.872;2023-07-30T01:38:22;18.40;99.90
7684;DHT22;3884;48.616;12.872;2023-07-30T01:40:49;18.30;99.90
7684;DHT22;3884;48.616;12.872;2023-07-30T01:43:16;18.20;99.90
7684;DHT22;3884;48.616;12.872;2023-07-30T01:45:43;18.20;99.90
7684;DHT22;3884;48.616;12.872;2023-07-30T01:48:10;18.30;99.90
7684;DHT22;3884;48.616;12.872;2023-07-30T01:50:37;18.20;99.90
7684;DHT22;3884;48.616;12.872;2023-07-30T01:53:05;18.10;99.90
7684;DHT22;3884;48.616;12.872;2023-07-30T01:55:34;17.90;99.90
7684;DHT22;3884;48.616;12.872;2023-07-30T01:58:01;18.00;99.90
7684;DHT22;3884;48.616;12.872;2023-07-30T02:00:28;18.00;99.90
7684;DHT22;3884;48.616;12.872;2023-07-30T02:03:03;18.00;99.90
7684;DHT22;3884;48.616;12.872;2023-07-30T02:05:30;18.00;99.90
7684;DHT22;3884;48.616;12.872;2023-07-30T02:07:58;18.20;99.90
7684;DHT22;3884;48.616;12.872;2023-07-30T02:10:26;18.20;99.90
7684;DHT22;3884;48.616;12.872;2023-07-30T02:12:53;18.00;99.90
7684;DHT22;3884;48.616;12.872;2023-07-30T02:15:20;18.10;99.90
7684;DHT22;3884;48.616;12.872;2023-07-30T02:17:47;18.20;99.90
7684;DHT22;3884;48.616;12.872;2023-07-30T02:20:14;18.20;99.90
7684;DHT22;3884;48.616;12.872;2023-07-30T02:22:41;18.10;99.90
7684;DHT22;3884;48.616;12.872;2023-07-30T02:25:08;18.10;99.90
7684;DHT22;3884;48.616;12.872;2023-07-30T02:27:36;18.10;99.90
7684;DHT22;3884;48.616;12.872;2023-07-30T02:30:04;18.10;99.90
7684;DHT22;3884;48.616;12.872;2023-07-30T02:32:31;18.10;99.90
7684;DHT22;3884;48.616;12.872;2023-07-30T02:34:57;18.10;99.90
7684;DHT22;3884;48.616;12.872;2023-07-30T02:37:24;18.20;99.90
7684;DHT22;3884;48.616;12.872;2023-07-30T02:39:51;18.10;99.90
7684;DHT22;3884;48.616;12.872;2023-07-30T02:42:18;18.10;99.90
7684;DHT22;3884;48.616;12.872;2023-07-30T02:44:46;18.10;99.90
7684;DHT22;3884;48.616;12.872;2023-07-30T02:47:13;18.20;99.90
7684;DHT22;3884;48.616;12.872;2023-07-30T02:49:40;18.10;99.90
7684;DHT22;3884;48.616;12.872;2023-07-30T02:52:08;18.10;99.90
7684;DHT22;3884;48.616;12.872;2023-07-30T02:54:35;18.10;99.90
7684;DHT22;3884;48.616;12.872;2023-07-30T02:57:03;18.10;99.90
7684;DHT22;3884;48.616;12.872;2023-07-30T02:59:31;18.10;99.90
7684;DHT22;3884;48.616;12.872;2023-07-30T03:02:03;18.10;99.90
7684;DHT22;3884;48.616;12.872;2023-07-30T03:04:30;18.10;99.90
7684;DHT22;3884;48.616;12.872;2023-07-30T03:06:57;18.10;99.90
7684;DHT22;3884;48.616;12.872;2023-07-30T03:09:24;18.10;99.90
7684;DHT22;3884;48.616;12.872;2023-07-30T03:11:51;18.00;99.90
7684;DHT22;3884;48.616;12.872;2023-07-30T03:14:18;18.00;99.90
7684;DHT22;3884;48.616;12.872;2023-07-30T03:16:46;18.00;99.90
7684;DHT22;3884;48.616;12.872;2023-07-30T03:19:15;18.00;99.90
7684;DHT22;3884;48.616;12.872;2023-07-30T03:21:42;18.00;99.90
7684;DHT22;3884;48.616;12.872;2023-07-30T03:24:08;18.00;99.90
7684;DHT22;3884;48.616;12.872;2023-07-30T03:26:35;17.90;99.90
7684;DHT22;3884;48.616;12.872;2023-07-30T03:29:03;18.00;99.90
7684;DHT22;3884;48.616;12.872;2023-07-30T03:31:30;17.90;99.90
7684;DHT22;3884;48.616;12.872;2023-07-30T03:33:57;18.00;99.90
7684;DHT22;3884;48.616;12.872;2023-07-30T03:36:25;18.00;99.90
7684;DHT22;3884;48.616;12.872;2023-07-30T03:38:51;17.90;99.90
7684;DHT22;3884;48.616;12.872;2023-07-30T03:41:18;17.90;99.90
7684;DHT22;3884;48.616;12.872;2023-07-30T03:43:45;17.90;99.90
7684;DHT22;3884;48.616;12.872;2023-07-30T03:46:12;17.70;99.90
7684;DHT22;3884;48.616;12.872;2023-07-30T03:48:39;17.50;99.90
7684;DHT22;3884;48.616;12.872;2023-07-30T03:51:07;17.40;99.90
7684;DHT22;3884;48.616;12.872;2023-07-30T03:53:35;17.30;99.90
7684;DHT22;3884;48.616;12.872;2023-07-30T03:56:02;17.20;99.90
7684;DHT22;3884;48.616;12.872;2023-07-30T03:58:29;17.10;99.90
7684;DHT22;3884;48.616;12.872;2023-07-30T04:00:56;17.10;99.90
7684;DHT22;3884;48.616;12.872;2023-07-30T04:03:23;17.00;99.90
7684;DHT22;3884;48.616;12.872;2023-07-30T04:05:50;17.10;99.90
7684;DHT22;3884;48.616;12.872;2023-07-30T04:08:17;17.00;99.90
7684;DHT22;3884;48.616;12.872;2023-07-30T04:10:45;17.00;99.90
7684;DHT22;3884;48.616;12.872;2023-07-30T04:13:12;17.00;99.90
7684;DHT22;3884;48.616;12.872;2023-07-30T04:15:41;16.90;99.90
7684;DHT22;3884;48.616;12.872;2023-07-30T04:18:08;17.00;99.90
7684;DHT22;3884;48.616;12.872;2023-07-30T04:20:34;17.00;99.90
7684;DHT22;3884;48.616;12.872;2023-07-30T04:23:02;17.00;99.90
7684;DHT22;3884;48.616;12.872;2023-07-30T04:25:29;17.00;99.90
7684;DHT22;3884;48.616;12.872;2023-07-30T04:27:57;17.00;99.90
7684;DHT22;3884;48.616;12.872;2023-07-30T04:30:24;17.00;99.90
7684;DHT22;3884;48.616;12.872;2023-07-30T04:32:53;17.00;99.90
7684;DHT22;3884;48.616;12.872;2023-07-30T04:35:19;16.90;99.90
7684;DHT22;3884;48.616;12.872;2023-07-30T04:37:46;17.00;99.90
7684;DHT22;3884;48.616;12.872;2023-07-30T04:40:13;17.00;99.90
7684;DHT22;3884;48.616;12.872;2023-07-30T04:42:40;17.00;99.90
7684;DHT22;3884;48.616;12.872;2023-07-30T04:45:10;17.00;99.90
7684;DHT22;3884;48.616;12.872;2023-07-30T04:47:43;17.00;99.90
7684;DHT22;3884;48.616;12.872;2023-07-30T04:50:10;17.00;99.90
7684;DHT22;3884;48.616;12.872;2023-07-30T04:52:37;17.00;99.90
7684;DHT22;3884;48.616;12.872;2023-07-30T04:55:05;17.00;99.90
7684;DHT22;3884;48.616;12.872;2023-07-30T04:57:32;17.00;99.90
7684;DHT22;3884;48.616;12.872;2023-07-30T05:00:00;17.00;99.90
7684;DHT22;3884;48.616;12.872;2023-07-30T05:02:29;17.10;99.90
7684;DHT22;3884;48.616;12.872;2023-07-30T05:04:56;17.20;99.90
7684;DHT22;3884;48.616;12.872;2023-07-30T05:07:23;17.20;99.90
7684;DHT22;3884;48.616;12.872;2023-07-30T05:09:50;17.20;99.90
7684;DHT22;3884;48.616;12.872;2023-07-30T05:12:17;17.40;99.90
7684;DHT22;3884;48.616;12.872;2023-07-30T05:14:44;17.40;99.90
7684;DHT22;3884;48.616;12.872;2023-07-30T05:17:10;17.50;99.90
7684;DHT22;3884;48.616;12.872;2023-07-30T05:19:39;17.50;99.90
7684;DHT22;3884;48.616;12.872;2023-07-30T05:22:06;17.50;99.90
7684;DHT22;3884;48.616;12.872;2023-07-30T05:24:33;17.40;99.90
7684;DHT22;3884;48.616;12.872;2023-07-30T05:27:02;17.40;99.90
7684;DHT22;3884;48.616;12.872;2023-07-30T05:29:29;17.50;99.90
7684;DHT22;3884;48.616;12.872;2023-07-30T05:31:56;17.50;99.90
7684;DHT22;3884;48.616;12.872;2023-07-30T05:34:23;17.50;99.90
7684;DHT22;3884;48.616;12.872;2023-07-30T05:36:51;17.60;99.90
7684;DHT22;3884;48.616;12.872;2023-07-30T05:39:18;17.60;99.90
7684;DHT22;3884;48.616;12.872;2023-07-30T05:41:45;17.60;99.90
7684;DHT22;3884;48.616;12.872;2023-07-30T05:44:12;17.60;99.90
7684;DHT22;3884;48.616;12.872;2023-07-30T05:46:39;17.50;99.90
7684;DHT22;3884;48.616;12.872;2023-07-30T05:49:05;17.60;99.90
7684;DHT22;3884;48.616;12.872;2023-07-30T05:51:32;17.60;99.90
7684;DHT22;3884;48.616;12.872;2023-07-30T05:54:01;17.70;99.90
7684;DHT22;3884;48.616;12.872;2023-07-30T05:56:28;17.70;99.90
7684;DHT22;3884;48.616;12.872;2023-07-30T05:58:54;17.80;99.90
7684;DHT22;3884;48.616;12.872;2023-07-30T06:01:21;17.90;99.90
7684;DHT22;3884;48.616;12.872;2023-07-30T06:03:48;17.90;99.90
7684;DHT22;3884;48.616;12.872;2023-07-30T06:06:16;17.90;99.90
7684;DHT22;3884;48.616;12.872;2023-07-30T06:08:45;18.00;99.90
7684;DHT22;3884;48.616;12.872;2023-07-30T06:11:13;18.20;99.90
7684;DHT22;3884;48.616;12.872;2023-07-30T06:13:40;18.20;99.90
7684;DHT22;3884;48.616;12.872;2023-07-30T06:16:07;18.10;99.90
7684;DHT22;3884;48.616;12.872;2023-07-30T06:18:33;18.10;99.90
7684;DHT22;3884;48.616;12.872;2023-07-30T06:21:00;18.20;99.90
7684;DHT22;3884;48.616;12.872;2023-07-30T06:23:27;18.30;99.90
7684;DHT22;3884;48.616;12.872;2023-07-30T06:25:54;18.30;99.90
7684;DHT22;3884;48.616;12.872;2023-07-30T06:28:22;18.40;99.90
7684;DHT22;3884;48.616;12.872;2023-07-30T06:30:50;18.50;99.90
7684;DHT22;3884;48.616;12.872;2023-07-30T06:33:16;18.50;99.90
7684;DHT22;3884;48.616;12.872;2023-07-30T06:35:43;18.40;99.90
7684;DHT22;3884;48.616;12.872;2023-07-30T06:38:10;18.30;99.90
7684;DHT22;3884;48.616;12.872;2023-07-30T06:40:37;18.40;99.90
7684;DHT22;3884;48.616;12.872;2023-07-30T06:43:04;18.50;99.90
7684;DHT22;3884;48.616;12.872;2023-07-30T06:45:32;18.50;99.90
7684;DHT22;3884;48.616;12.872;2023-07-30T06:47:59;18.50;99.90
7684;DHT22;3884;48.616;12.872;2023-07-30T06:50:26;18.50;99.90
7684;DHT22;3884;48.616;12.872;2023-07-30T06:52:52;18.50;99.90
7684;DHT22;3884;48.616;12.872;2023-07-30T06:55:19;18.50;99.90
7684;DHT22;3884;48.616;12.872;2023-07-30T06:57:46;18.50;99.90
7684;DHT22;3884;48.616;12.872;2023-07-30T07:00:14;18.60;99.90
7684;DHT22;3884;48.616;12.872;2023-07-30T07:02:48;18.60;99.90
7684;DHT22;3884;48.616;12.872;2023-07-30T07:05:15;18.60;99.90
7684;DHT22;3884;48.616;12.872;2023-07-30T07:07:42;18.70;99.90
7684;DHT22;3884;48.616;12.872;2023-07-30T07:10:09;18.70;99.90
7684;DHT22;3884;48.616;12.872;2023-07-30T07:12:37;18.80;99.90
7684;DHT22;3884;48.616;12.872;2023-07-30T07:15:05;18.90;99.90
7684;DHT22;3884;48.616;12.872;2023-07-30T07:17:32;19.10;99.90
7684;DHT22;3884;48.616;12.872;2023-07-30T07:20:00;19.10;99.90
7684;DHT22;3884;48.616;12.872;2023-07-30T07:22:29;19.30;99.90
7684;DHT22;3884;48.616;12.872;2023-07-30T07:24:56;19.40;99.90
7684;DHT22;3884;48.616;12.872;2023-07-30T07:27:23;19.60;99.90
7684;DHT22;3884;48.616;12.872;2023-07-30T07:29:50;19.80;99.90
7684;DHT22;3884;48.616;12.872;2023-07-30T07:32:17;19.90;99.90
7684;DHT22;3884;48.616;12.872;2023-07-30T07:34:46;20.00;99.90
7684;DHT22;3884;48.616;12.872;2023-07-30T07:37:15;19.80;99.90
7684;DHT22;3884;48.616;12.872;2023-07-30T07:39:44;19.90;99.90
7684;DHT22;3884;48.616;12.872;2023-07-30T07:42:11;19.90;99.90
7684;DHT22;3884;48.616;12.872;2023-07-30T07:44:38;20.00;99.90
7684;DHT22;3884;48.616;12.872;2023-07-30T07:47:05;20.30;99.90
7684;DHT22;3884;48.616;12.872;2023-07-30T07:49:32;20.40;98.40
7684;DHT22;3884;48.616;12.872;2023-07-30T07:51:59;20.50;1.00
7684;DHT22;3884;48.616;12.872;2023-07-30T07:54:27;20.60;38.30
7684;DHT22;3884;48.616;12.872;2023-07-30T07:56:54;20.60;27.50
7684;DHT22;3884;48.616;12.872;2023-07-30T07:59:21;20.80;1.00
7684;DHT22;3884;48.616;12.872;2023-07-30T08:01:48;21.10;1.00
7684;DHT22;3884;48.616;12.872;2023-07-30T08:04:15;21.10;1.00
7684;DHT22;3884;48.616;12.872;2023-07-30T08:06:41;21.20;1.00
7684;DHT22;3884;48.616;12.872;2023-07-30T08:09:08;21.20;1.00
7684;DHT22;3884;48.616;12.872;2023-07-30T08:11:37;21.10;1.00
7684;DHT22;3884;48.616;12.872;2023-07-30T08:14:03;21.10;1.00
7684;DHT22;3884;48.616;12.872;2023-07-30T08:16:31;21.20;1.00
7684;DHT22;3884;48.616;12.872;2023-07-30T08:18:58;21.10;1.00
7684;DHT22;3884;48.616;12.872;2023-07-30T08:21:26;21.00;1.00
7684;DHT22;3884;48.616;12.872;2023-07-30T08:23:53;21.10;1.00
7684;DHT22;3884;48.616;12.872;2023-07-30T08:26:19;20.80;1.00
7684;DHT22;3884;48.616;12.872;2023-07-30T08:28:48;20.80;1.00
7684;DHT22;3884;48.616;12.872;2023-07-30T08:31:16;21.00;1.00
7684;DHT22;3884;48.616;12.872;2023-07-30T08:33:42;21.20;1.00
7684;DHT22;3884;48.616;12.872;2023-07-30T08:36:09;21.10;99.90
7684;DHT22;3884;48.616;12.872;2023-07-30T08:38:36;20.90;99.90
7684;DHT22;3884;48.616;12.872;2023-07-30T08:41:04;20.80;1.00
7684;DHT22;3884;48.616;12.872;2023-07-30T08:43:31;20.70;1.00
7684;DHT22;3884;48.616;12.872;2023-07-30T08:46:01;20.70;1.00
7684;DHT22;3884;48.616;12.872;2023-07-30T08:48:28;20.70;1.00
7684;DHT22;3884;48.616;12.872;2023-07-30T08:50:57;20.60;77.80
7684;DHT22;3884;48.616;12.872;2023-07-30T08:53:24;20.60;21.50
7684;DHT22;3884;48.616;12.872;2023-07-30T08:55:53;20.50;99.90
7684;DHT22;3884;48.616;12.872;2023-07-30T08:58:20;20.50;99.90
7684;DHT22;3884;48.616;12.872;2023-07-30T09:00:49;20.50;99.90
7684;DHT22;3884;48.616;12.872;2023-07-30T09:03:18;20.30;99.90
7684;DHT22;3884;48.616;12.872;2023-07-30T09:05:46;20.30;99.90
7684;DHT22;3884;48.616;12.872;2023-07-30T09:08:14;20.30;99.90
7684;DHT22;3884;48.616;12.872;2023-07-30T09:10:41;20.40;99.90
7684;DHT22;3884;48.616;12.872;2023-07-30T09:13:08;20.60;99.90
7684;DHT22;3884;48.616;12.872;2023-07-30T09:15:36;20.60;99.90
7684;DHT22;3884;48.616;12.872;2023-07-30T09:18:04;20.60;99.90
7684;DHT22;3884;48.616;12.872;2023-07-30T09:20:38;20.70;99.90
7684;DHT22;3884;48.616;12.872;2023-07-30T09:23:05;20.80;1.00
7684;DHT22;3884;48.616;12.872;2023-07-30T09:25:32;21.20;1.00
7684;DHT22;3884;48.616;12.872;2023-07-30T09:27:59;21.70;1.00
7684;DHT22;3884;48.616;12.872;2023-07-30T09:30:27;21.70;99.90
7684;DHT22;3884;48.616;12.872;2023-07-30T09:32:55;21.60;1.00
7684;DHT22;3884;48.616;12.872;2023-07-30T09:35:23;21.60;1.00
7684;DHT22;3884;48.616;12.872;2023-07-30T09:37:58;21.30;1.00
7684;DHT22;3884;48.616;12.872;2023-07-30T09:40:31;21.00;1.00
7684;DHT22;3884;48.616;12.872;2023-07-30T09:42:58;20.70;1.00
7684;DHT22;3884;48.616;12.872;2023-07-30T09:45:26;20.70;99.90
7684;DHT22;3884;48.616;12.872;2023-07-30T09:47:54;20.40;99.90
7684;DHT22;3884;48.616;12.872;2023-07-30T09:50:22;20.30;99.90
7684;DHT22;3884;48.616;12.872;2023-07-30T09:52:49;20.20;99.90
7684;DHT22;3884;48.616;12.872;2023-07-30T09:55:18;20.20;99.90
7684;DHT22;3884;48.616;12.872;2023-07-30T09:57:45;20.30;99.90
7684;DHT22;3884;48.616;12.872;2023-07-30T10:00:12;20.50;99.90
7684;DHT22;3884;48.616;12.872;2023-07-30T10:02:41;20.80;99.90
7684;DHT22;3884;48.616;12.872;2023-07-30T10:05:11;21.00;99.90
7684;DHT22;3884;48.616;12.872;2023-07-30T10:07:44;21.30;99.90
7684;DHT22;3884;48.616;12.872;2023-07-30T10:10:14;21.70;23.50
7684;DHT22;3884;48.616;12.872;2023-07-30T10:12:43;21.90;1.00
7684;DHT22;3884;48.616;12.872;2023-07-30T10:15:10;22.00;99.90
7684;DHT22;3884;48.616;12.872;2023-07-30T10:17:37;21.80;99.90
7684;DHT22;3884;48.616;12.872;2023-07-30T10:20:21;21.80;1.00
7684;DHT22;3884;48.616;12.872;2023-07-30T10:22:51;21.80;1.00
7684;DHT22;3884;48.616;12.872;2023-07-30T10:25:22;21.80;1.00
7684;DHT22;3884;48.616;12.872;2023-07-30T10:27:51;21.80;99.90
7684;DHT22;3884;48.616;12.872;2023-07-30T10:30:19;22.00;99.90
7684;DHT22;3884;48.616;12.872;2023-07-30T10:33:02;22.10;1.00
7684;DHT22;3884;48.616;12.872;2023-07-30T10:35:38;22.20;99.90
7684;DHT22;3884;48.616;12.872;2023-07-30T10:38:19;22.30;84.20
7684;DHT22;3884;48.616;12.872;2023-07-30T10:41:01;22.50;95.20
7684;DHT22;3884;48.616;12.872;2023-07-30T10:43:30;22.50;99.90
7684;DHT22;3884;48.616;12.872;2023-07-30T10:45:57;22.80;1.00
7684;DHT22;3884;48.616;12.872;2023-07-30T10:48:32;22.90;1.00
7684;DHT22;3884;48.616;12.872;2023-07-30T10:51:00;23.00;1.00
7684;DHT22;3884;48.616;12.872;2023-07-30T10:53:28;23.00;1.00
7684;DHT22;3884;48.616;12.872;2023-07-30T10:55:57;23.10;1.00
7684;DHT22;3884;48.616;12.872;2023-07-30T10:58:26;23.10;1.00
7684;DHT22;3884;48.616;12.872;2023-07-30T11:00:55;23.00;99.90
7684;DHT22;3884;48.616;12.872;2023-07-30T11:03:24;23.20;1.00
7684;DHT22;3884;48.616;12.872;2023-07-30T11:05:52;23.30;93.20
7684;DHT22;3884;48.616;12.872;2023-07-30T11:08:19;22.90;99.90
7684;DHT22;3884;48.616;12.872;2023-07-30T11:10:47;22.60;91.40
7684;DHT22;3884;48.616;12.872;2023-07-30T11:13:14;22.20;1.00
7684;DHT22;3884;48.616;12.872;2023-07-30T11:15:42;21.70;1.00
7684;DHT22;3884;48.616;12.872;2023-07-30T11:18:12;21.30;55.90
7684;DHT22;3884;48.616;12.872;2023-07-30T11:20:39;21.10;1.00
7684;DHT22;3884;48.616;12.872;2023-07-30T11:23:20;20.90;1.00
7684;DHT22;3884;48.616;12.872;2023-07-30T11:25:48;20.80;1.00
7684;DHT22;3884;48.616;12.872;2023-07-30T11:28:27;20.70;1.00
7684;DHT22;3884;48.616;12.872;2023-07-30T11:31:00;20.60;99.90
7684;DHT22;3884;48.616;12.872;2023-07-30T11:33:29;20.50;1.00
7684;DHT22;3884;48.616;12.872;2023-07-30T11:35:57;20.40;1.00
7684;DHT22;3884;48.616;12.872;2023-07-30T11:38:24;20.30;56.10
7684;DHT22;3884;48.616;12.872;2023-07-30T11:40:52;20.30;1.00
7684;DHT22;3884;48.616;12.872;2023-07-30T11:43:20;20.40;99.90
7684;DHT22;3884;48.616;12.872;2023-07-30T11:45:47;20.40;99.90
7684;DHT22;3884;48.616;12.872;2023-07-30T11:48:14;20.50;1.00
7684;DHT22;3884;48.616;12.872;2023-07-30T11:50:50;20.60;1.00
7684;DHT22;3884;48.616;12.872;2023-07-30T11:53:18;20.60;1.00
7684;DHT22;3884;48.616;12.872;2023-07-30T11:55:45;20.50;1.00
7684;DHT22;3884;48.616;12.872;2023-07-30T11:58:13;20.70;99.90
7684;DHT22;3884;48.616;12.872;2023-07-30T12:00:40;20.60;1.00
7684;DHT22;3884;48.616;12.872;2023-07-30T12:03:10;20.70;1.00
7684;DHT22;3884;48.616;12.872;2023-07-30T12:05:38;20.70;1.00
7684;DHT22;3884;48.616;12.872;2023-07-30T12:08:16;20.90;1.00
7684;DHT22;3884;48.616;12.872;2023-07-30T12:10:46;21.10;99.90
7684;DHT22;3884;48.616;12.872;2023-07-30T12:13:15;21.40;99.90
7684;DHT22;3884;48.616;12.872;2023-07-30T12:15:50;21.70;1.00
7684;DHT22;3884;48.616;12.872;2023-07-30T12:18:17;21.90;20.30
7684;DHT22;3884;48.616;12.872;2023-07-30T12:20:44;21.90;1.00
7684;DHT22;3884;48.616;12.872;2023-07-30T12:23:12;21.60;99.90
7684;DHT22;3884;48.616;12.872;2023-07-30T12:25:40;21.60;1.00
7684;DHT22;3884;48.616;12.872;2023-07-30T12:28:06;21.50;99.90
7684;DHT22;3884;48.616;12.872;2023-07-30T12:30:33;21.40;99.90
7684;DHT22;3884;48.616;12.872;2023-07-30T12:33:02;21.40;1.00
7684;DHT22;3884;48.616;12.872;2023-07-30T12:35:29;21.50;99.90
7684;DHT22;3884;48.616;12.872;2023-07-30T12:37:56;21.60;86.10
7684;DHT22;3884;48.616;12.872;2023-07-30T12:40:25;21.70;99.90
7684;DHT22;3884;48.616;12.872;2023-07-30T12:42:52;21.70;1.00
7684;DHT22;3884;48.616;12.872;2023-07-30T12:45:19;21.80;99.90
7684;DHT22;3884;48.616;12.872;2023-07-30T12:47:46;22.10;99.90
7684;DHT22;3884;48.616;12.872;2023-07-30T12:50:12;22.20;1.00
7684;DHT22;3884;48.616;12.872;2023-07-30T12:52:40;22.20;1.00
7684;DHT22;3884;48.616;12.872;2023-07-30T12:55:07;22.30;1.00
7684;DHT22;3884;48.616;12.872;2023-07-30T12:57:35;22.30;1.00
7684;DHT22;3884;48.616;12.872;2023-07-30T13:00:02;22.30;99.90
7684;DHT22;3884;48.616;12.872;2023-07-30T13:02:31;22.20;99.90
7684;DHT22;3884;48.616;12.872;2023-07-30T13:04:59;22.20;1.00
7684;DHT22;3884;48.616;12.872;2023-07-30T13:07:26;22.10;1.00
7684;DHT22;3884;48.616;12.872;2023-07-30T13:10:02;22.00;95.00
7684;DHT22;3884;48.616;12.872;2023-07-30T13:12:29;21.90;99.90
7684;DHT22;3884;48.616;12.872;2023-07-30T13:14:57;22.00;1.00
7684;DHT22;3884;48.616;12.872;2023-07-30T13:17:24;22.40;99.90
7684;DHT22;3884;48.616;12.872;2023-07-30T13:19:51;22.40;99.90
7684;DHT22;3884;48.616;12.872;2023-07-30T13:22:18;22.70;99.90
7684;DHT22;3884;48.616;12.872;2023-07-30T13:24:45;22.80;99.90
7684;DHT22;3884;48.616;12.872;2023-07-30T13:27:12;23.00;99.90
7684;DHT22;3884;48.616;12.872;2023-07-30T13:29:38;22.90;1.00
7684;DHT22;3884;48.616;12.872;2023-07-30T13:32:07;22.80;99.90
7684;DHT22;3884;48.616;12.872;2023-07-30T13:34:34;22.80;99.90
7684;DHT22;3884;48.616;12.872;2023-07-30T13:37:01;22.90;1.00
7684;DHT22;3884;48.616;12.872;2023-07-30T13:39:28;23.10;1.00
7684;DHT22;3884;48.616;12.872;2023-07-30T13:41:55;23.00;99.90
7684;DHT22;3884;48.616;12.872;2023-07-30T13:44:22;23.10;1.00
7684;DHT22;3884;48.616;12.872;2023-07-30T13:46:49;23.30;1.00
7684;DHT22;3884;48.616;12.872;2023-07-30T13:49:17;23.60;1.00
7684;DHT22;3884;48.616;12.872;2023-07-30T13:51:44;23.70;1.00
7684;DHT22;3884;48.616;12.872;2023-07-30T13:54:11;23.70;99.90
7684;DHT22;3884;48.616;12.872;2023-07-30T13:56:38;23.60;99.90
7684;DHT22;3884;48.616;12.872;2023-07-30T13:59:06;23.40;99.90
7684;DHT22;3884;48.616;12.872;2023-07-30T14:01:33;23.40;99.90
7684;DHT22;3884;48.616;12.872;2023-07-30T14:04:00;23.50;99.90
7684;DHT22;3884;48.616;12.872;2023-07-30T14:06:29;24.00;99.90
7684;DHT22;3884;48.616;12.872;2023-07-30T14:08:56;24.10;1.00
7684;DHT22;3884;48.616;12.872;2023-07-30T14:11:26;23.90;1.00
7684;DHT22;3884;48.616;12.872;2023-07-30T14:13:53;24.00;1.00
7684;DHT22;3884;48.616;12.872;2023-07-30T14:16:20;24.20;1.00
7684;DHT22;3884;48.616;12.872;2023-07-30T14:18:47;24.30;1.00
7684;DHT22;3884;48.616;12.872;2023-07-30T14:21:14;23.80;99.90
7684;DHT22;3884;48.616;12.872;2023-07-30T14:23:42;23.60;99.90
7684;DHT22;3884;48.616;12.872;2023-07-30T14:26:09;23.50;99.90
7684;DHT22;3884;48.616;12.872;2023-07-30T14:28:36;23.20;99.90
7684;DHT22;3884;48.616;12.872;2023-07-30T14:31:03;22.90;99.90
7684;DHT22;3884;48.616;12.872;2023-07-30T14:33:30;22.60;99.90
7684;DHT22;3884;48.616;12.872;2023-07-30T14:35:56;22.40;99.90
7684;DHT22;3884;48.616;12.872;2023-07-30T14:38:24;22.30;99.90
7684;DHT22;3884;48.616;12.872;2023-07-30T14:40:52;22.30;99.90
7684;DHT22;3884;48.616;12.872;2023-07-30T14:43:19;22.50;99.90
7684;DHT22;3884;48.616;12.872;2023-07-30T14:45:46;22.60;99.90
7684;DHT22;3884;48.616;12.872;2023-07-30T14:48:13;23.00;99.90
7684;DHT22;3884;48.616;12.872;2023-07-30T14:50:40;23.40;99.90
7684;DHT22;3884;48.616;12.872;2023-07-30T14:53:07;23.70;99.90
7684;DHT22;3884;48.616;12.872;2023-07-30T14:55:34;23.90;99.90
7684;DHT22;3884;48.616;12.872;2023-07-30T14:58:02;24.00;99.90
7684;DHT22;3884;48.616;12.872;2023-07-30T15:00:29;24.10;99.90
7684;DHT22;3884;48.616;12.872;2023-07-30T15:02:56;24.20;99.90
7684;DHT22;3884;48.616;12.872;2023-07-30T15:05:22;24.20;99.90
7684;DHT22;3884;48.616;12.872;2023-07-30T15:07:49;24.00;91.00
7684;DHT22;3884;48.616;12.872;2023-07-30T15:10:16;23.50;55.70
7684;DHT22;3884;48.616;12.872;2023-07-30T15:12:43;23.30;99.90
7684;DHT22;3884;48.616;12.872;2023-07-30T15:15:11;23.30;99.00
7684;DHT22;3884;48.616;12.872;2023-07-30T15:17:38;23.50;88.60
7684;DHT22;3884;48.616;12.872;2023-07-30T15:20:06;23.60;44.10
7684;DHT22;3884;48.616;12.872;2023-07-30T15:22:33;23.90;18.70
7684;DHT22;3884;48.616;12.872;2023-07-30T15:25:00;24.00;1.00
7684;DHT22;3884;48.616;12.872;2023-07-30T15:27:28;24.00;99.90
7684;DHT22;3884;48.616;12.872;2023-07-30T15:29:55;23.90;1.00
7684;DHT22;3884;48.616;12.872;2023-07-30T15:32:23;23.80;1.00
7684;DHT22;3884;48.616;12.872;2023-07-30T15:34:50;23.80;1.00
7684;DHT22;3884;48.616;12.872;2023-07-30T15:37:17;24.00;1.00
7684;DHT22;3884;48.616;12.872;2023-07-30T15:39:44;24.30;1.00
7684;DHT22;3884;48.616;12.872;2023-07-30T15:42:11;24.40;1.00
7684;DHT22;3884;48.616;12.872;2023-07-30T15:44:38;24.40;1.00
7684;DHT22;3884;48.616;12.872;2023-07-30T15:47:05;24.50;99.90
7684;DHT22;3884;48.616;12.872;2023-07-30T15:49:35;24.60;99.90
7684;DHT22;3884;48.616;12.872;2023-07-30T15:52:02;24.60;99.90
7684;DHT22;3884;48.616;12.872;2023-07-30T15:54:33;24.50;99.90